sensor_id;sensor_type;location;lat;lon;timestamp;P1;durP1;ratioP1;P2;durP2;ratioP2
16689;SDS011;8458;52.220;9.884;2024-01-16T00:00:28;1.93;;;0.90;;
16689;SDS011;8458;52.220;9.884;2024-01-16T00:02:56;2.80;;;0.80;;
16689;SDS011;8458;52.220;9.884;2024-01-16T00:05:22;1.60;;;0.80;;
16689;SDS011;8458;52.220;9.884;2024-01-16T00:07:49;2.53;;;1.00;;
16689;SDS011;8458;52.220;9.884;2024-01-16T00:10:15;2.53;;;0.90;;
16689;SDS011;8458;52.220;9.884;2024-01-16T00:12:42;1.47;;;1.00;;
16689;SDS011;8458;52.220;9.884;2024-01-16T00:15:08;1.47;;;0.90;;
16689;SDS011;8458;52.220;9.884;2024-01-16T00:17:35;1.47;;;0.63;;
16689;SDS011;8458;52.220;9.884;2024-01-16T00:20:04;1.40;;;0.67;;
16689;SDS011;8458;52.220;9.884;2024-01-16T00:22:31;1.80;;;0.60;;
16689;SDS011;8458;52.220;9.884;2024-01-16T00:24:58;1.33;;;0.70;;
16689;SDS011;8458;52.220;9.884;2024-01-16T00:27:25;1.23;;;0.70;;
16689;SDS011;8458;52.220;9.884;2024-01-16T00:29:51;1.17;;;0.50;;
16689;SDS011;8458;52.220;9.884;2024-01-16T00:32:17;1.20;;;0.70;;
16689;SDS011;8458;52.220;9.884;2024-01-16T00:34:44;1.73;;;0.70;;
16689;SDS011;8458;52.220;9.884;2024-01-16T00:37:12;0.70;;;0.50;;
16689;SDS011;8458;52.220;9.884;2024-01-16T00:39:38;1.13;;;0.60;;
16689;SDS011;8458;52.220;9.884;2024-01-16T00:42:05;0.83;;;0.60;;
16689;SDS011;8458;52.220;9.884;2024-01-16T00:44:31;1.33;;;0.50;;
16689;SDS011;8458;52.220;9.884;2024-01-16T00:46:58;0.47;;;0.47;;
16689;SDS011;8458;52.220;9.884;2024-01-16T00:49:26;2.17;;;0.70;;
16689;SDS011;8458;52.220;9.884;2024-01-16T00:51:53;0.90;;;0.60;;
16689;SDS011;8458;52.220;9.884;2024-01-16T00:54:21;1.90;;;0.70;;
16689;SDS011;8458;52.220;9.884;2024-01-16T00:56:47;1.90;;;0.60;;
16689;SDS011;8458;52.220;9.884;2024-01-16T00:59:13;1.10;;;0.60;;
16689;SDS011;8458;52.220;9.884;2024-01-16T01:01:40;1.60;;;0.70;;
16689;SDS011;8458;52.220;9.884;2024-01-16T01:04:06;1.77;;;0.80;;
16689;SDS011;8458;52.220;9.884;2024-01-16T01:06:34;2.10;;;0.60;;
16689;SDS011;8458;52.220;9.884;2024-01-16T01:09:01;1.20;;;0.70;;
16689;SDS011;8458;52.220;9.884;2024-01-16T01:11:29;1.77;;;0.70;;
16689;SDS011;8458;52.220;9.884;2024-01-16T01:13:55;2.73;;;0.70;;
16689;SDS011;8458;52.220;9.884;2024-01-16T01:16:22;1.20;;;0.70;;
16689;SDS011;8458;52.220;9.884;2024-01-16T01:18:48;2.10;;;0.90;;
16689;SDS011;8458;52.220;9.884;2024-01-16T01:21:15;2.57;;;0.77;;
16689;SDS011;8458;52.220;9.884;2024-01-16T01:23:43;2.83;;;0.80;;
16689;SDS011;8458;52.220;9.884;2024-01-16T01:26:09;2.77;;;1.00;;
16689;SDS011;8458;52.220;9.884;2024-01-16T01:28:40;1.07;;;0.70;;
16689;SDS011;8458;52.220;9.884;2024-01-16T01:31:08;0.80;;;0.70;;
16689;SDS011;8458;52.220;9.884;2024-01-16T01:33:34;0.90;;;0.60;;
16689;SDS011;8458;52.220;9.884;2024-01-16T01:36:01;1.67;;;0.60;;
16689;SDS011;8458;52.220;9.884;2024-01-16T01:38:27;2.47;;;1.57;;
16689;SDS011;8458;52.220;9.884;2024-01-16T01:40:54;3.20;;;0.77;;
16689;SDS011;8458;52.220;9.884;2024-01-16T01:43:21;1.63;;;0.60;;
16689;SDS011;8458;52.220;9.884;2024-01-16T01:45:54;2.40;;;0.80;;
16689;SDS011;8458;52.220;9.884;2024-01-16T01:48:29;2.43;;;0.53;;
16689;SDS011;8458;52.220;9.884;2024-01-16T01:50:57;0.97;;;0.60;;
16689;SDS011;8458;52.220;9.884;2024-01-16T01:53:23;2.13;;;0.80;;
16689;SDS011;8458;52.220;9.884;2024-01-16T01:55:50;2.03;;;0.80;;
16689;SDS011;8458;52.220;9.884;2024-01-16T01:58:17;1.97;;;0.70;;
16689;SDS011;8458;52.220;9.884;2024-01-16T02:00:43;2.73;;;1.00;;
16689;SDS011;8458;52.220;9.884;2024-01-16T02:03:11;3.20;;;1.00;;
16689;SDS011;8458;52.220;9.884;2024-01-16T02:05:38;3.13;;;0.80;;
16689;SDS011;8458;52.220;9.884;2024-01-16T02:08:05;2.53;;;0.83;;
16689;SDS011;8458;52.220;9.884;2024-01-16T02:10:32;1.97;;;0.97;;
16689;SDS011;8458;52.220;9.884;2024-01-16T02:12:58;2.73;;;1.07;;
16689;SDS011;8458;52.220;9.884;2024-01-16T02:15:25;2.53;;;0.90;;
16689;SDS011;8458;52.220;9.884;2024-01-16T02:17:51;1.40;;;0.60;;
16689;SDS011;8458;52.220;9.884;2024-01-16T02:20:19;2.33;;;0.90;;
16689;SDS011;8458;52.220;9.884;2024-01-16T02:22:45;3.13;;;1.00;;
16689;SDS011;8458;52.220;9.884;2024-01-16T02:25:18;2.33;;;0.80;;
16689;SDS011;8458;52.220;9.884;2024-01-16T02:27:44;2.07;;;0.70;;
16689;SDS011;8458;52.220;9.884;2024-01-16T02:30:12;1.53;;;0.77;;
16689;SDS011;8458;52.220;9.884;2024-01-16T02:32:38;2.30;;;0.83;;
16689;SDS011;8458;52.220;9.884;2024-01-16T02:35:05;2.27;;;0.70;;
16689;SDS011;8458;52.220;9.884;2024-01-16T02:37:31;2.20;;;0.60;;
16689;SDS011;8458;52.220;9.884;2024-01-16T02:39:57;1.50;;;0.83;;
16689;SDS011;8458;52.220;9.884;2024-01-16T02:42:25;1.50;;;0.80;;
16689;SDS011;8458;52.220;9.884;2024-01-16T02:44:51;1.80;;;0.70;;
16689;SDS011;8458;52.220;9.884;2024-01-16T02:47:18;3.60;;;0.80;;
16689;SDS011;8458;52.220;9.884;2024-01-16T02:49:45;1.73;;;0.60;;
16689;SDS011;8458;52.220;9.884;2024-01-16T02:52:11;1.27;;;0.60;;
16689;SDS011;8458;52.220;9.884;2024-01-16T02:54:38;1.27;;;0.70;;
16689;SDS011;8458;52.220;9.884;2024-01-16T02:57:04;1.90;;;0.67;;
16689;SDS011;8458;52.220;9.884;2024-01-16T02:59:32;1.30;;;0.70;;
16689;SDS011;8458;52.220;9.884;2024-01-16T03:01:58;1.87;;;0.77;;
16689;SDS011;8458;52.220;9.884;2024-01-16T03:04:25;3.93;;;0.90;;
16689;SDS011;8458;52.220;9.884;2024-01-16T03:06:51;3.00;;;0.90;;
16689;SDS011;8458;52.220;9.884;2024-01-16T03:09:18;1.67;;;0.70;;
16689;SDS011;8458;52.220;9.884;2024-01-16T03:11:44;1.53;;;0.70;;
16689;SDS011;8458;52.220;9.884;2024-01-16T03:14:11;1.43;;;0.80;;
16689;SDS011;8458;52.220;9.884;2024-01-16T03:16:39;2.07;;;0.87;;
16689;SDS011;8458;52.220;9.884;2024-01-16T03:19:06;2.97;;;0.87;;
16689;SDS011;8458;52.220;9.884;2024-01-16T03:21:32;1.90;;;0.90;;
16689;SDS011;8458;52.220;9.884;2024-01-16T03:23:59;1.80;;;0.70;;
16689;SDS011;8458;52.220;9.884;2024-01-16T03:26:25;3.00;;;0.80;;
16689;SDS011;8458;52.220;9.884;2024-01-16T03:28:52;2.67;;;1.03;;
16689;SDS011;8458;52.220;9.884;2024-01-16T03:31:18;3.67;;;0.70;;
16689;SDS011;8458;52.220;9.884;2024-01-16T03:33:47;1.73;;;0.80;;
16689;SDS011;8458;52.220;9.884;2024-01-16T03:36:14;2.70;;;0.93;;
16689;SDS011;8458;52.220;9.884;2024-01-16T03:38:41;3.17;;;1.00;;
16689;SDS011;8458;52.220;9.884;2024-01-16T03:41:08;2.63;;;0.87;;
16689;SDS011;8458;52.220;9.884;2024-01-16T03:43:37;3.77;;;0.80;;
16689;SDS011;8458;52.220;9.884;2024-01-16T03:46:03;1.83;;;0.90;;
16689;SDS011;8458;52.220;9.884;2024-01-16T03:48:33;1.73;;;0.77;;
16689;SDS011;8458;52.220;9.884;2024-01-16T03:51:01;3.63;;;0.90;;
16689;SDS011;8458;52.220;9.884;2024-01-16T03:53:27;1.63;;;0.73;;
16689;SDS011;8458;52.220;9.884;2024-01-16T03:55:54;3.23;;;0.80;;
16689;SDS011;8458;52.220;9.884;2024-01-16T03:58:20;2.53;;;0.80;;
16689;SDS011;8458;52.220;9.884;2024-01-16T04:00:48;2.23;;;0.83;;
16689;SDS011;8458;52.220;9.884;2024-01-16T04:03:15;3.37;;;0.90;;
16689;SDS011;8458;52.220;9.884;2024-01-16T04:05:42;4.27;;;1.10;;
16689;SDS011;8458;52.220;9.884;2024-01-16T04:08:10;3.40;;;1.07;;
16689;SDS011;8458;52.220;9.884;2024-01-16T04:10:37;3.00;;;0.83;;
16689;SDS011;8458;52.220;9.884;2024-01-16T04:13:04;4.10;;;1.20;;
16689;SDS011;8458;52.220;9.884;2024-01-16T04:15:31;3.00;;;1.00;;
16689;SDS011;8458;52.220;9.884;2024-01-16T04:17:57;4.40;;;0.87;;
16689;SDS011;8458;52.220;9.884;2024-01-16T04:20:24;2.47;;;1.10;;
16689;SDS011;8458;52.220;9.884;2024-01-16T04:22:50;2.73;;;0.90;;
16689;SDS011;8458;52.220;9.884;2024-01-16T04:25:19;3.53;;;1.37;;
16689;SDS011;8458;52.220;9.884;2024-01-16T04:27:45;4.80;;;1.50;;
16689;SDS011;8458;52.220;9.884;2024-01-16T04:30:12;4.00;;;1.50;;
16689;SDS011;8458;52.220;9.884;2024-01-16T04:32:39;4.20;;;1.87;;
16689;SDS011;8458;52.220;9.884;2024-01-16T04:35:05;4.27;;;1.50;;
16689;SDS011;8458;52.220;9.884;2024-01-16T04:37:32;4.07;;;1.33;;
16689;SDS011;8458;52.220;9.884;2024-01-16T04:39:59;2.00;;;1.30;;
16689;SDS011;8458;52.220;9.884;2024-01-16T04:42:26;3.07;;;1.47;;
16689;SDS011;8458;52.220;9.884;2024-01-16T04:44:53;4.50;;;1.37;;
16689;SDS011;8458;52.220;9.884;2024-01-16T04:47:19;3.73;;;1.60;;
16689;SDS011;8458;52.220;9.884;2024-01-16T04:49:46;4.00;;;1.40;;
16689;SDS011;8458;52.220;9.884;2024-01-16T04:52:12;4.23;;;1.37;;
16689;SDS011;8458;52.220;9.884;2024-01-16T04:54:39;3.77;;;1.17;;
16689;SDS011;8458;52.220;9.884;2024-01-16T04:57:05;2.77;;;1.20;;
16689;SDS011;8458;52.220;9.884;2024-01-16T04:59:33;3.63;;;1.07;;
16689;SDS011;8458;52.220;9.884;2024-01-16T05:01:59;4.07;;;1.33;;
16689;SDS011;8458;52.220;9.884;2024-01-16T05:04:26;3.57;;;1.33;;
16689;SDS011;8458;52.220;9.884;2024-01-16T05:06:52;3.87;;;1.40;;
16689;SDS011;8458;52.220;9.884;2024-01-16T05:09:18;4.17;;;1.30;;
16689;SDS011;8458;52.220;9.884;2024-01-16T05:11:45;3.37;;;1.20;;
16689;SDS011;8458;52.220;9.884;2024-01-16T05:14:12;3.57;;;1.03;;
16689;SDS011;8458;52.220;9.884;2024-01-16T05:16:39;3.53;;;1.40;;
16689;SDS011;8458;52.220;9.884;2024-01-16T05:19:06;6.60;;;2.13;;
16689;SDS011;8458;52.220;9.884;2024-01-16T05:21:32;3.17;;;1.20;;
16689;SDS011;8458;52.220;9.884;2024-01-16T05:23:59;2.37;;;1.33;;
16689;SDS011;8458;52.220;9.884;2024-01-16T05:26:25;3.17;;;1.27;;
16689;SDS011;8458;52.220;9.884;2024-01-16T05:28:52;3.93;;;1.53;;
16689;SDS011;8458;52.220;9.884;2024-01-16T05:31:18;5.60;;;1.40;;
16689;SDS011;8458;52.220;9.884;2024-01-16T05:33:46;3.43;;;1.63;;
16689;SDS011;8458;52.220;9.884;2024-01-16T05:36:13;3.20;;;1.90;;
16689;SDS011;8458;52.220;9.884;2024-01-16T05:38:39;4.67;;;1.90;;
16689;SDS011;8458;52.220;9.884;2024-01-16T05:41:05;3.40;;;1.70;;
16689;SDS011;8458;52.220;9.884;2024-01-16T05:43:32;3.30;;;1.40;;
16689;SDS011;8458;52.220;9.884;2024-01-16T05:45:58;3.07;;;1.60;;
16689;SDS011;8458;52.220;9.884;2024-01-16T05:48:25;2.83;;;1.67;;
16689;SDS011;8458;52.220;9.884;2024-01-16T05:50:54;3.00;;;1.60;;
16689;SDS011;8458;52.220;9.884;2024-01-16T05:53:20;3.73;;;1.50;;
16689;SDS011;8458;52.220;9.884;2024-01-16T05:55:47;3.77;;;2.07;;
16689;SDS011;8458;52.220;9.884;2024-01-16T05:58:13;4.33;;;1.80;;
16689;SDS011;8458;52.220;9.884;2024-01-16T06:00:39;2.47;;;1.40;;
16689;SDS011;8458;52.220;9.884;2024-01-16T06:03:06;3.50;;;1.70;;
16689;SDS011;8458;52.220;9.884;2024-01-16T06:05:32;3.80;;;1.50;;
16689;SDS011;8458;52.220;9.884;2024-01-16T06:08:00;3.43;;;1.67;;
16689;SDS011;8458;52.220;9.884;2024-01-16T06:10:28;4.00;;;1.77;;
16689;SDS011;8458;52.220;9.884;2024-01-16T06:12:54;3.97;;;1.90;;
16689;SDS011;8458;52.220;9.884;2024-01-16T06:15:20;3.50;;;1.40;;
16689;SDS011;8458;52.220;9.884;2024-01-16T06:17:48;3.13;;;1.50;;
16689;SDS011;8458;52.220;9.884;2024-01-16T06:20:14;4.90;;;1.80;;
16689;SDS011;8458;52.220;9.884;2024-01-16T06:22:41;4.00;;;2.03;;
16689;SDS011;8458;52.220;9.884;2024-01-16T06:25:09;3.07;;;1.90;;
16689;SDS011;8458;52.220;9.884;2024-01-16T06:27:35;3.07;;;1.83;;
16689;SDS011;8458;52.220;9.884;2024-01-16T06:30:02;3.30;;;1.77;;
16689;SDS011;8458;52.220;9.884;2024-01-16T06:32:29;2.63;;;1.60;;
16689;SDS011;8458;52.220;9.884;2024-01-16T06:34:56;2.77;;;1.70;;
16689;SDS011;8458;52.220;9.884;2024-01-16T06:37:22;4.20;;;1.90;;
16689;SDS011;8458;52.220;9.884;2024-01-16T06:39:49;4.03;;;1.73;;
16689;SDS011;8458;52.220;9.884;2024-01-16T06:42:16;5.17;;;1.57;;
16689;SDS011;8458;52.220;9.884;2024-01-16T06:44:43;4.37;;;1.73;;
16689;SDS011;8458;52.220;9.884;2024-01-16T06:47:09;3.00;;;1.40;;
16689;SDS011;8458;52.220;9.884;2024-01-16T06:49:36;2.70;;;1.60;;
16689;SDS011;8458;52.220;9.884;2024-01-16T06:52:02;2.17;;;1.67;;
16689;SDS011;8458;52.220;9.884;2024-01-16T06:54:29;2.77;;;1.93;;
16689;SDS011;8458;52.220;9.884;2024-01-16T06:56:56;5.47;;;2.07;;
16689;SDS011;8458;52.220;9.884;2024-01-16T06:59:23;3.10;;;1.87;;
16689;SDS011;8458;52.220;9.884;2024-01-16T07:01:50;4.03;;;2.20;;
16689;SDS011;8458;52.220;9.884;2024-01-16T07:04:16;2.50;;;2.10;;
16689;SDS011;8458;52.220;9.884;2024-01-16T07:06:43;4.23;;;2.57;;
16689;SDS011;8458;52.220;9.884;2024-01-16T07:09:09;3.93;;;2.17;;
16689;SDS011;8458;52.220;9.884;2024-01-16T07:11:36;3.83;;;2.53;;
16689;SDS011;8458;52.220;9.884;2024-01-16T07:14:04;3.77;;;2.37;;
16689;SDS011;8458;52.220;9.884;2024-01-16T07:16:34;6.90;;;2.97;;
16689;SDS011;8458;52.220;9.884;2024-01-16T07:19:01;5.40;;;2.80;;
16689;SDS011;8458;52.220;9.884;2024-01-16T07:21:27;3.57;;;2.77;;
16689;SDS011;8458;52.220;9.884;2024-01-16T07:23:54;4.03;;;3.10;;
16689;SDS011;8458;52.220;9.884;2024-01-16T07:26:21;3.90;;;3.30;;
16689;SDS011;8458;52.220;9.884;2024-01-16T07:28:48;4.07;;;3.47;;
16689;SDS011;8458;52.220;9.884;2024-01-16T07:31:15;4.20;;;3.20;;
16689;SDS011;8458;52.220;9.884;2024-01-16T07:33:43;5.30;;;3.50;;
16689;SDS011;8458;52.220;9.884;2024-01-16T07:36:10;5.37;;;3.63;;
16689;SDS011;8458;52.220;9.884;2024-01-16T07:38:37;3.87;;;3.10;;
16689;SDS011;8458;52.220;9.884;2024-01-16T07:41:04;4.67;;;3.73;;
16689;SDS011;8458;52.220;9.884;2024-01-16T07:43:31;6.20;;;3.93;;
16689;SDS011;8458;52.220;9.884;2024-01-16T07:45:57;4.47;;;4.00;;
16689;SDS011;8458;52.220;9.884;2024-01-16T07:48:24;3.87;;;3.57;;
16689;SDS011;8458;52.220;9.884;2024-01-16T07:50:52;5.67;;;3.50;;
16689;SDS011;8458;52.220;9.884;2024-01-16T07:53:19;5.70;;;3.50;;
16689;SDS011;8458;52.220;9.884;2024-01-16T07:55:45;3.33;;;2.83;;
16689;SDS011;8458;52.220;9.884;2024-01-16T07:58:12;4.03;;;3.23;;
16689;SDS011;8458;52.220;9.884;2024-01-16T08:00:39;4.10;;;3.10;;
16689;SDS011;8458;52.220;9.884;2024-01-16T08:03:07;5.70;;;3.00;;
16689;SDS011;8458;52.220;9.884;2024-01-16T08:05:35;3.17;;;2.80;;
16689;SDS011;8458;52.220;9.884;2024-01-16T08:08:03;5.73;;;3.00;;
16689;SDS011;8458;52.220;9.884;2024-01-16T08:10:30;5.47;;;3.40;;
16689;SDS011;8458;52.220;9.884;2024-01-16T08:12:57;3.07;;;2.80;;
16689;SDS011;8458;52.220;9.884;2024-01-16T08:15:23;5.37;;;3.43;;
16689;SDS011;8458;52.220;9.884;2024-01-16T08:17:49;7.27;;;3.07;;
16689;SDS011;8458;52.220;9.884;2024-01-16T08:20:16;3.90;;;2.63;;
16689;SDS011;8458;52.220;9.884;2024-01-16T08:22:43;4.90;;;3.00;;
16689;SDS011;8458;52.220;9.884;2024-01-16T08:25:11;4.13;;;3.07;;
16689;SDS011;8458;52.220;9.884;2024-01-16T08:27:37;3.67;;;2.73;;
16689;SDS011;8458;52.220;9.884;2024-01-16T08:30:05;4.00;;;2.93;;
16689;SDS011;8458;52.220;9.884;2024-01-16T08:32:32;3.87;;;3.13;;
16689;SDS011;8458;52.220;9.884;2024-01-16T08:34:59;4.20;;;2.60;;
16689;SDS011;8458;52.220;9.884;2024-01-16T08:37:25;4.43;;;2.70;;
16689;SDS011;8458;52.220;9.884;2024-01-16T08:39:52;7.43;;;3.27;;
16689;SDS011;8458;52.220;9.884;2024-01-16T08:42:19;4.40;;;2.90;;
16689;SDS011;8458;52.220;9.884;2024-01-16T08:44:46;4.77;;;2.90;;
16689;SDS011;8458;52.220;9.884;2024-01-16T08:47:12;4.37;;;3.60;;
16689;SDS011;8458;52.220;9.884;2024-01-16T08:49:39;7.37;;;3.37;;
16689;SDS011;8458;52.220;9.884;2024-01-16T08:52:05;4.17;;;3.03;;
16689;SDS011;8458;52.220;9.884;2024-01-16T08:54:32;4.97;;;3.23;;
16689;SDS011;8458;52.220;9.884;2024-01-16T08:56:58;4.33;;;2.60;;
16689;SDS011;8458;52.220;9.884;2024-01-16T08:59:26;5.53;;;2.83;;
16689;SDS011;8458;52.220;9.884;2024-01-16T09:01:53;3.20;;;2.87;;
16689;SDS011;8458;52.220;9.884;2024-01-16T09:04:20;3.67;;;2.97;;
16689;SDS011;8458;52.220;9.884;2024-01-16T09:06:47;4.43;;;3.07;;
16689;SDS011;8458;52.220;9.884;2024-01-16T09:09:13;5.00;;;3.03;;
16689;SDS011;8458;52.220;9.884;2024-01-16T09:11:41;3.60;;;3.27;;
16689;SDS011;8458;52.220;9.884;2024-01-16T09:14:07;6.47;;;3.57;;
16689;SDS011;8458;52.220;9.884;2024-01-16T09:16:35;3.53;;;2.93;;
16689;SDS011;8458;52.220;9.884;2024-01-16T09:19:01;5.77;;;3.33;;
16689;SDS011;8458;52.220;9.884;2024-01-16T09:21:28;7.43;;;3.90;;
16689;SDS011;8458;52.220;9.884;2024-01-16T09:23:54;6.00;;;3.40;;
16689;SDS011;8458;52.220;9.884;2024-01-16T09:26:21;4.60;;;3.37;;
16689;SDS011;8458;52.220;9.884;2024-01-16T09:28:47;4.57;;;3.50;;
16689;SDS011;8458;52.220;9.884;2024-01-16T09:31:14;4.00;;;3.57;;
16689;SDS011;8458;52.220;9.884;2024-01-16T09:33:42;4.03;;;3.30;;
16689;SDS011;8458;52.220;9.884;2024-01-16T09:36:09;6.37;;;3.53;;
16689;SDS011;8458;52.220;9.884;2024-01-16T09:38:36;4.73;;;3.50;;
16689;SDS011;8458;52.220;9.884;2024-01-16T09:41:02;4.37;;;3.20;;
16689;SDS011;8458;52.220;9.884;2024-01-16T09:43:29;4.10;;;3.70;;
16689;SDS011;8458;52.220;9.884;2024-01-16T09:45:58;4.10;;;3.37;;
16689;SDS011;8458;52.220;9.884;2024-01-16T09:48:27;6.73;;;3.90;;
16689;SDS011;8458;52.220;9.884;2024-01-16T09:50:56;4.03;;;3.63;;
16689;SDS011;8458;52.220;9.884;2024-01-16T09:53:22;5.03;;;3.60;;
16689;SDS011;8458;52.220;9.884;2024-01-16T09:55:49;4.03;;;3.67;;
16689;SDS011;8458;52.220;9.884;2024-01-16T09:58:16;5.23;;;3.40;;
16689;SDS011;8458;52.220;9.884;2024-01-16T10:00:46;4.53;;;3.20;;
16689;SDS011;8458;52.220;9.884;2024-01-16T10:03:13;5.53;;;3.83;;
16689;SDS011;8458;52.220;9.884;2024-01-16T10:05:40;4.67;;;3.57;;
16689;SDS011;8458;52.220;9.884;2024-01-16T10:08:09;4.27;;;3.70;;
16689;SDS011;8458;52.220;9.884;2024-01-16T10:10:36;4.43;;;3.93;;
16689;SDS011;8458;52.220;9.884;2024-01-16T10:13:02;4.30;;;4.00;;
16689;SDS011;8458;52.220;9.884;2024-01-16T10:15:29;4.00;;;3.60;;
16689;SDS011;8458;52.220;9.884;2024-01-16T10:17:57;5.40;;;4.30;;
16689;SDS011;8458;52.220;9.884;2024-01-16T10:20:34;4.60;;;3.70;;
16689;SDS011;8458;52.220;9.884;2024-01-16T10:23:01;4.50;;;4.10;;
16689;SDS011;8458;52.220;9.884;2024-01-16T10:25:30;4.67;;;3.77;;
16689;SDS011;8458;52.220;9.884;2024-01-16T10:28:03;4.97;;;4.00;;
16689;SDS011;8458;52.220;9.884;2024-01-16T10:30:32;4.67;;;4.27;;
16689;SDS011;8458;52.220;9.884;2024-01-16T10:33:11;4.03;;;3.60;;
16689;SDS011;8458;52.220;9.884;2024-01-16T10:35:39;4.00;;;3.60;;
16689;SDS011;8458;52.220;9.884;2024-01-16T10:38:06;4.63;;;4.07;;
16689;SDS011;8458;52.220;9.884;2024-01-16T10:40:33;3.77;;;3.37;;
16689;SDS011;8458;52.220;9.884;2024-01-16T10:43:00;7.13;;;4.07;;
16689;SDS011;8458;52.220;9.884;2024-01-16T10:45:28;3.77;;;3.47;;
16689;SDS011;8458;52.220;9.884;2024-01-16T10:48:00;3.93;;;3.57;;
16689;SDS011;8458;52.220;9.884;2024-01-16T10:50:28;3.60;;;3.23;;
16689;SDS011;8458;52.220;9.884;2024-01-16T10:52:54;4.37;;;3.60;;
16689;SDS011;8458;52.220;9.884;2024-01-16T10:55:21;4.23;;;3.33;;
16689;SDS011;8458;52.220;9.884;2024-01-16T10:57:50;4.13;;;3.73;;
16689;SDS011;8458;52.220;9.884;2024-01-16T11:00:18;4.23;;;3.27;;
16689;SDS011;8458;52.220;9.884;2024-01-16T11:02:49;4.37;;;3.57;;
16689;SDS011;8458;52.220;9.884;2024-01-16T11:05:17;3.53;;;3.23;;
16689;SDS011;8458;52.220;9.884;2024-01-16T11:07:45;3.90;;;3.27;;
16689;SDS011;8458;52.220;9.884;2024-01-16T11:10:12;4.73;;;3.30;;
16689;SDS011;8458;52.220;9.884;2024-01-16T11:12:40;5.27;;;2.70;;
16689;SDS011;8458;52.220;9.884;2024-01-16T11:15:10;3.73;;;2.70;;
16689;SDS011;8458;52.220;9.884;2024-01-16T11:17:37;3.27;;;2.70;;
16689;SDS011;8458;52.220;9.884;2024-01-16T11:20:06;5.73;;;2.90;;
16689;SDS011;8458;52.220;9.884;2024-01-16T11:22:36;3.50;;;2.60;;
16689;SDS011;8458;52.220;9.884;2024-01-16T11:25:08;3.97;;;2.70;;
16689;SDS011;8458;52.220;9.884;2024-01-16T11:27:35;2.87;;;2.60;;
16689;SDS011;8458;52.220;9.884;2024-01-16T11:30:01;4.23;;;3.17;;
16689;SDS011;8458;52.220;9.884;2024-01-16T11:32:35;3.10;;;2.70;;
16689;SDS011;8458;52.220;9.884;2024-01-16T11:35:05;3.13;;;2.83;;
16689;SDS011;8458;52.220;9.884;2024-01-16T11:37:32;2.93;;;2.67;;
16689;SDS011;8458;52.220;9.884;2024-01-16T11:42:47;4.00;;;3.17;;
16689;SDS011;8458;52.220;9.884;2024-01-16T11:48:16;3.07;;;2.33;;
16689;SDS011;8458;52.220;9.884;2024-01-16T11:50:43;3.00;;;2.63;;
16689;SDS011;8458;52.220;9.884;2024-01-16T11:53:10;3.40;;;3.10;;
16689;SDS011;8458;52.220;9.884;2024-01-16T11:55:42;3.13;;;2.83;;
16689;SDS011;8458;52.220;9.884;2024-01-16T11:58:27;3.20;;;3.00;;
16689;SDS011;8458;52.220;9.884;2024-01-16T12:01:07;5.50;;;3.13;;
16689;SDS011;8458;52.220;9.884;2024-01-16T12:03:38;3.40;;;2.93;;
16689;SDS011;8458;52.220;9.884;2024-01-16T12:06:04;3.90;;;3.00;;
16689;SDS011;8458;52.220;9.884;2024-01-16T12:08:33;3.43;;;2.70;;
16689;SDS011;8458;52.220;9.884;2024-01-16T12:11:01;4.13;;;3.00;;
16689;SDS011;8458;52.220;9.884;2024-01-16T12:13:29;4.10;;;3.57;;
16689;SDS011;8458;52.220;9.884;2024-01-16T12:16:01;3.80;;;3.50;;
16689;SDS011;8458;52.220;9.884;2024-01-16T12:18:30;4.60;;;4.20;;
16689;SDS011;8458;52.220;9.884;2024-01-16T12:21:07;4.17;;;3.77;;
16689;SDS011;8458;52.220;9.884;2024-01-16T12:23:34;7.93;;;7.13;;
16689;SDS011;8458;52.220;9.884;2024-01-16T12:26:01;6.00;;;5.40;;
16689;SDS011;8458;52.220;9.884;2024-01-16T12:28:28;5.37;;;4.93;;
16689;SDS011;8458;52.220;9.884;2024-01-16T12:30:56;5.60;;;5.10;;
16689;SDS011;8458;52.220;9.884;2024-01-16T12:33:22;5.80;;;5.30;;
16689;SDS011;8458;52.220;9.884;2024-01-16T12:35:49;6.47;;;5.87;;
16689;SDS011;8458;52.220;9.884;2024-01-16T12:38:19;6.17;;;5.53;;
16689;SDS011;8458;52.220;9.884;2024-01-16T12:40:49;7.70;;;6.40;;
16689;SDS011;8458;52.220;9.884;2024-01-16T12:43:17;6.97;;;6.43;;
16689;SDS011;8458;52.220;9.884;2024-01-16T12:45:44;6.80;;;6.30;;
16689;SDS011;8458;52.220;9.884;2024-01-16T12:48:11;8.23;;;7.50;;
16689;SDS011;8458;52.220;9.884;2024-01-16T12:50:38;8.80;;;8.20;;
16689;SDS011;8458;52.220;9.884;2024-01-16T12:53:04;8.63;;;7.93;;
16689;SDS011;8458;52.220;9.884;2024-01-16T12:55:34;8.57;;;7.97;;
16689;SDS011;8458;52.220;9.884;2024-01-16T12:58:13;8.97;;;8.27;;
16689;SDS011;8458;52.220;9.884;2024-01-16T13:00:41;9.67;;;8.90;;
16689;SDS011;8458;52.220;9.884;2024-01-16T13:03:07;9.80;;;8.97;;
16689;SDS011;8458;52.220;9.884;2024-01-16T13:05:41;9.93;;;8.97;;
16689;SDS011;8458;52.220;9.884;2024-01-16T13:08:08;9.43;;;8.60;;
16689;SDS011;8458;52.220;9.884;2024-01-16T13:10:36;10.00;;;9.30;;
16689;SDS011;8458;52.220;9.884;2024-01-16T13:13:12;9.83;;;9.03;;
16689;SDS011;8458;52.220;9.884;2024-01-16T13:15:40;10.60;;;9.57;;
16689;SDS011;8458;52.220;9.884;2024-01-16T13:18:16;10.90;;;10.07;;
16689;SDS011;8458;52.220;9.884;2024-01-16T13:20:44;11.10;;;10.27;;
16689;SDS011;8458;52.220;9.884;2024-01-16T13:23:12;11.40;;;10.60;;
16689;SDS011;8458;52.220;9.884;2024-01-16T13:25:41;12.73;;;11.63;;
16689;SDS011;8458;52.220;9.884;2024-01-16T13:28:09;12.80;;;11.70;;
16689;SDS011;8458;52.220;9.884;2024-01-16T13:30:35;12.47;;;11.40;;
16689;SDS011;8458;52.220;9.884;2024-01-16T13:33:02;12.87;;;11.87;;
16689;SDS011;8458;52.220;9.884;2024-01-16T13:35:29;12.80;;;11.93;;
16689;SDS011;8458;52.220;9.884;2024-01-16T13:37:56;12.97;;;12.07;;
16689;SDS011;8458;52.220;9.884;2024-01-16T13:40:23;12.73;;;11.67;;
16689;SDS011;8458;52.220;9.884;2024-01-16T13:42:51;12.23;;;11.13;;
16689;SDS011;8458;52.220;9.884;2024-01-16T13:45:17;12.00;;;11.03;;
16689;SDS011;8458;52.220;9.884;2024-01-16T13:47:44;12.53;;;11.63;;
16689;SDS011;8458;52.220;9.884;2024-01-16T13:50:10;11.53;;;10.70;;
16689;SDS011;8458;52.220;9.884;2024-01-16T13:52:37;11.17;;;10.37;;
16689;SDS011;8458;52.220;9.884;2024-01-16T13:55:05;11.27;;;10.57;;
16689;SDS011;8458;52.220;9.884;2024-01-16T13:57:32;11.10;;;9.93;;
16689;SDS011;8458;52.220;9.884;2024-01-16T14:00:01;10.70;;;9.50;;
16689;SDS011;8458;52.220;9.884;2024-01-16T14:02:28;10.17;;;9.27;;
16689;SDS011;8458;52.220;9.884;2024-01-16T14:04:54;8.50;;;7.70;;
16689;SDS011;8458;52.220;9.884;2024-01-16T14:07:21;8.10;;;6.87;;
16689;SDS011;8458;52.220;9.884;2024-01-16T14:09:47;7.50;;;6.77;;
16689;SDS011;8458;52.220;9.884;2024-01-16T14:12:14;6.93;;;6.40;;
16689;SDS011;8458;52.220;9.884;2024-01-16T14:14:41;8.13;;;7.33;;
16689;SDS011;8458;52.220;9.884;2024-01-16T14:17:08;7.13;;;6.60;;
16689;SDS011;8458;52.220;9.884;2024-01-16T14:19:35;6.13;;;5.63;;
16689;SDS011;8458;52.220;9.884;2024-01-16T14:22:02;6.43;;;5.90;;
16689;SDS011;8458;52.220;9.884;2024-01-16T14:24:29;7.03;;;6.10;;
16689;SDS011;8458;52.220;9.884;2024-01-16T14:26:56;5.90;;;5.40;;
16689;SDS011;8458;52.220;9.884;2024-01-16T14:29:22;6.00;;;5.43;;
16689;SDS011;8458;52.220;9.884;2024-01-16T14:31:49;4.83;;;4.50;;
16689;SDS011;8458;52.220;9.884;2024-01-16T14:34:17;5.47;;;4.93;;
16689;SDS011;8458;52.220;9.884;2024-01-16T14:36:44;5.10;;;4.13;;
16689;SDS011;8458;52.220;9.884;2024-01-16T14:39:09;5.00;;;4.10;;
16689;SDS011;8458;52.220;9.884;2024-01-16T14:41:38;4.73;;;3.77;;
16689;SDS011;8458;52.220;9.884;2024-01-16T14:44:04;4.30;;;3.90;;
16689;SDS011;8458;52.220;9.884;2024-01-16T14:46:31;4.23;;;3.37;;
16689;SDS011;8458;52.220;9.884;2024-01-16T14:48:59;6.83;;;3.63;;
16689;SDS011;8458;52.220;9.884;2024-01-16T14:51:26;8.37;;;3.90;;
16689;SDS011;8458;52.220;9.884;2024-01-16T14:53:53;3.60;;;3.30;;
16689;SDS011;8458;52.220;9.884;2024-01-16T14:56:19;4.37;;;3.27;;
16689;SDS011;8458;52.220;9.884;2024-01-16T14:58:46;4.43;;;3.13;;
16689;SDS011;8458;52.220;9.884;2024-01-16T15:01:13;4.17;;;3.37;;
16689;SDS011;8458;52.220;9.884;2024-01-16T15:03:41;4.70;;;3.77;;
16689;SDS011;8458;52.220;9.884;2024-01-16T15:06:08;4.57;;;3.73;;